sensor_id;sensor_type;location;lat;lon;timestamp;P1;durP1;ratioP1;P2;durP2;ratioP2
69625;SDS011;56847;51.984;5.088;2023-02-11T00:01:04;11.33;;;3.90;;
69625;SDS011;56847;51.984;5.088;2023-02-11T00:03:33;25.88;;;5.70;;
69625;SDS011;56847;51.984;5.088;2023-02-11T00:06:01;24.17;;;5.05;;
69625;SDS011;56847;51.984;5.088;2023-02-11T00:08:31;21.65;;;4.70;;
69625;SDS011;56847;51.984;5.088;2023-02-11T00:10:58;24.15;;;5.03;;
69625;SDS011;56847;51.984;5.088;2023-02-11T00:13:25;22.37;;;5.30;;
69625;SDS011;56847;51.984;5.088;2023-02-11T00:15:53;19.88;;;4.97;;
69625;SDS011;56847;51.984;5.088;2023-02-11T00:18:20;24.38;;;5.95;;
69625;SDS011;56847;51.984;5.088;2023-02-11T00:20:47;24.05;;;5.47;;
69625;SDS011;56847;51.984;5.088;2023-02-11T00:23:14;25.00;;;4.90;;
69625;SDS011;56847;51.984;5.088;2023-02-11T00:25:41;24.50;;;5.47;;
69625;SDS011;56847;51.984;5.088;2023-02-11T00:28:10;18.17;;;5.38;;
69625;SDS011;56847;51.984;5.088;2023-02-11T00:30:38;27.30;;;5.68;;
69625;SDS011;56847;51.984;5.088;2023-02-11T00:33:06;21.63;;;4.50;;
69625;SDS011;56847;51.984;5.088;2023-02-11T00:35:35;15.38;;;4.57;;
69625;SDS011;56847;51.984;5.088;2023-02-11T00:38:06;28.07;;;5.63;;
69625;SDS011;56847;51.984;5.088;2023-02-11T00:40:33;26.75;;;5.47;;
69625;SDS011;56847;51.984;5.088;2023-02-11T00:43:01;17.05;;;5.57;;
69625;SDS011;56847;51.984;5.088;2023-02-11T00:45:28;20.40;;;4.70;;
69625;SDS011;56847;51.984;5.088;2023-02-11T00:47:56;19.48;;;4.78;;
69625;SDS011;56847;51.984;5.088;2023-02-11T00:50:23;25.10;;;6.13;;
69625;SDS011;56847;51.984;5.088;2023-02-11T00:52:50;19.02;;;6.50;;
69625;SDS011;56847;51.984;5.088;2023-02-11T00:55:17;22.35;;;4.45;;
69625;SDS011;56847;51.984;5.088;2023-02-11T00:57:44;18.77;;;5.40;;
69625;SDS011;56847;51.984;5.088;2023-02-11T01:00:12;14.35;;;4.90;;
69625;SDS011;56847;51.984;5.088;2023-02-11T01:02:40;23.97;;;5.50;;
69625;SDS011;56847;51.984;5.088;2023-02-11T01:05:08;20.75;;;5.32;;
69625;SDS011;56847;51.984;5.088;2023-02-11T01:07:35;8.07;;;3.47;;
69625;SDS011;56847;51.984;5.088;2023-02-11T01:10:02;16.90;;;4.35;;
69625;SDS011;56847;51.984;5.088;2023-02-11T01:12:30;18.02;;;4.70;;
69625;SDS011;56847;51.984;5.088;2023-02-11T01:15:01;21.87;;;5.80;;
69625;SDS011;56847;51.984;5.088;2023-02-11T01:17:31;19.40;;;4.95;;
69625;SDS011;56847;51.984;5.088;2023-02-11T01:19:58;24.25;;;5.40;;
69625;SDS011;56847;51.984;5.088;2023-02-11T01:22:30;20.95;;;4.72;;
69625;SDS011;56847;51.984;5.088;2023-02-11T01:24:57;26.88;;;5.28;;
69625;SDS011;56847;51.984;5.088;2023-02-11T01:27:24;27.20;;;5.80;;
69625;SDS011;56847;51.984;5.088;2023-02-11T01:29:51;19.40;;;5.13;;
69625;SDS011;56847;51.984;5.088;2023-02-11T01:32:18;29.90;;;6.45;;
69625;SDS011;56847;51.984;5.088;2023-02-11T01:34:45;18.38;;;5.30;;
69625;SDS011;56847;51.984;5.088;2023-02-11T01:37:12;29.92;;;5.53;;
69625;SDS011;56847;51.984;5.088;2023-02-11T01:39:39;28.10;;;5.93;;
69625;SDS011;56847;51.984;5.088;2023-02-11T01:42:06;31.35;;;6.60;;
69625;SDS011;56847;51.984;5.088;2023-02-11T01:44:36;29.42;;;5.35;;
69625;SDS011;56847;51.984;5.088;2023-02-11T01:47:05;27.02;;;6.03;;
69625;SDS011;56847;51.984;5.088;2023-02-11T01:49:33;18.50;;;5.75;;
69625;SDS011;56847;51.984;5.088;2023-02-11T01:55:05;14.75;;;3.72;;
69625;SDS011;56847;51.984;5.088;2023-02-11T01:57:55;35.38;;;6.32;;
69625;SDS011;56847;51.984;5.088;2023-02-11T02:00:34;32.90;;;6.68;;
69625;SDS011;56847;51.984;5.088;2023-02-11T02:03:09;24.23;;;6.05;;
69625;SDS011;56847;51.984;5.088;2023-02-11T02:05:51;25.00;;;5.70;;
69625;SDS011;56847;51.984;5.088;2023-02-11T02:08:54;31.23;;;6.45;;
69625;SDS011;56847;51.984;5.088;2023-02-11T02:11:27;13.50;;;3.85;;
69625;SDS011;56847;51.984;5.088;2023-02-11T02:13:54;24.08;;;5.95;;
69625;SDS011;56847;51.984;5.088;2023-02-11T02:16:22;30.95;;;6.25;;
69625;SDS011;56847;51.984;5.088;2023-02-11T02:21:53;17.75;;;5.45;;
69625;SDS011;56847;51.984;5.088;2023-02-11T02:27:29;29.27;;;6.95;;
69625;SDS011;56847;51.984;5.088;2023-02-11T02:30:29;23.60;;;5.93;;
69625;SDS011;56847;51.984;5.088;2023-02-11T02:33:32;33.10;;;7.70;;
69625;SDS011;56847;51.984;5.088;2023-02-11T02:38:36;18.80;;;6.32;;
69625;SDS011;56847;51.984;5.088;2023-02-11T02:41:10;25.98;;;7.53;;
69625;SDS011;56847;51.984;5.088;2023-02-11T02:43:42;30.30;;;7.80;;
69625;SDS011;56847;51.984;5.088;2023-02-11T02:46:12;23.70;;;6.87;;
69625;SDS011;56847;51.984;5.088;2023-02-11T02:48:51;27.23;;;6.78;;
69625;SDS011;56847;51.984;5.088;2023-02-11T02:56:40;23.65;;;6.78;;
69625;SDS011;56847;51.984;5.088;2023-02-11T03:04:43;32.35;;;8.77;;
69625;SDS011;56847;51.984;5.088;2023-02-11T03:07:33;32.40;;;8.80;;
69625;SDS011;56847;51.984;5.088;2023-02-11T03:10:08;25.60;;;8.10;;
69625;SDS011;56847;51.984;5.088;2023-02-11T03:12:45;21.43;;;7.23;;
69625;SDS011;56847;51.984;5.088;2023-02-11T03:15:14;35.15;;;9.10;;
69625;SDS011;56847;51.984;5.088;2023-02-11T03:17:44;27.52;;;8.98;;
69625;SDS011;56847;51.984;5.088;2023-02-11T03:20:15;35.33;;;9.60;;
69625;SDS011;56847;51.984;5.088;2023-02-11T03:22:47;22.25;;;7.13;;
69625;SDS011;56847;51.984;5.088;2023-02-11T03:25:25;24.17;;;6.90;;
69625;SDS011;56847;51.984;5.088;2023-02-11T03:30:33;33.63;;;8.05;;
69625;SDS011;56847;51.984;5.088;2023-02-11T03:33:07;34.17;;;9.40;;
69625;SDS011;56847;51.984;5.088;2023-02-11T03:35:52;30.85;;;9.57;;
69625;SDS011;56847;51.984;5.088;2023-02-11T03:38:28;32.80;;;9.30;;
69625;SDS011;56847;51.984;5.088;2023-02-11T03:40:58;29.05;;;9.98;;
69625;SDS011;56847;51.984;5.088;2023-02-11T03:43:32;33.17;;;10.32;;
69625;SDS011;56847;51.984;5.088;2023-02-11T03:46:10;38.80;;;12.02;;
69625;SDS011;56847;51.984;5.088;2023-02-11T03:48:46;14.23;;;6.47;;
69625;SDS011;56847;51.984;5.088;2023-02-11T03:51:16;35.17;;;9.30;;
69625;SDS011;56847;51.984;5.088;2023-02-11T03:53:47;28.02;;;8.90;;
69625;SDS011;56847;51.984;5.088;2023-02-11T03:56:18;22.27;;;8.50;;
69625;SDS011;56847;51.984;5.088;2023-02-11T03:58:48;26.73;;;9.75;;
69625;SDS011;56847;51.984;5.088;2023-02-11T04:01:15;43.17;;;9.63;;
69625;SDS011;56847;51.984;5.088;2023-02-11T04:03:43;31.87;;;9.93;;
69625;SDS011;56847;51.984;5.088;2023-02-11T04:06:09;39.03;;;11.05;;
69625;SDS011;56847;51.984;5.088;2023-02-11T04:08:36;30.13;;;11.30;;
69625;SDS011;56847;51.984;5.088;2023-02-11T04:11:03;38.55;;;11.93;;
69625;SDS011;56847;51.984;5.088;2023-02-11T04:13:30;14.38;;;7.63;;
69625;SDS011;56847;51.984;5.088;2023-02-11T04:15:57;39.93;;;12.10;;
69625;SDS011;56847;51.984;5.088;2023-02-11T04:18:24;37.90;;;12.23;;
69625;SDS011;56847;51.984;5.088;2023-02-11T04:20:52;37.67;;;11.35;;
69625;SDS011;56847;51.984;5.088;2023-02-11T04:23:19;49.67;;;12.82;;
69625;SDS011;56847;51.984;5.088;2023-02-11T04:25:46;25.73;;;11.90;;
69625;SDS011;56847;51.984;5.088;2023-02-11T04:28:15;31.83;;;13.07;;
69625;SDS011;56847;51.984;5.088;2023-02-11T04:30:44;37.42;;;10.95;;
69625;SDS011;56847;51.984;5.088;2023-02-11T04:33:11;28.85;;;9.35;;
69625;SDS011;56847;51.984;5.088;2023-02-11T04:35:38;38.92;;;12.07;;
69625;SDS011;56847;51.984;5.088;2023-02-11T04:38:05;52.60;;;14.38;;
69625;SDS011;56847;51.984;5.088;2023-02-11T04:40:32;36.90;;;13.10;;
69625;SDS011;56847;51.984;5.088;2023-02-11T04:42:59;46.55;;;14.60;;
69625;SDS011;56847;51.984;5.088;2023-02-11T04:45:26;43.70;;;14.55;;
69625;SDS011;56847;51.984;5.088;2023-02-11T04:47:53;41.00;;;13.35;;
69625;SDS011;56847;51.984;5.088;2023-02-11T04:50:20;37.85;;;14.32;;
69625;SDS011;56847;51.984;5.088;2023-02-11T04:52:46;36.43;;;12.07;;
69625;SDS011;56847;51.984;5.088;2023-02-11T04:55:13;35.50;;;14.02;;
69625;SDS011;56847;51.984;5.088;2023-02-11T04:57:40;49.47;;;14.38;;
69625;SDS011;56847;51.984;5.088;2023-02-11T05:00:08;41.47;;;14.32;;
69625;SDS011;56847;51.984;5.088;2023-02-11T05:02:35;38.42;;;13.40;;
69625;SDS011;56847;51.984;5.088;2023-02-11T05:05:02;47.37;;;14.77;;
69625;SDS011;56847;51.984;5.088;2023-02-11T05:07:29;41.28;;;15.40;;
69625;SDS011;56847;51.984;5.088;2023-02-11T05:09:56;52.58;;;15.60;;
69625;SDS011;56847;51.984;5.088;2023-02-11T05:12:23;46.67;;;15.23;;
69625;SDS011;56847;51.984;5.088;2023-02-11T05:14:50;40.92;;;14.43;;
69625;SDS011;56847;51.984;5.088;2023-02-11T05:17:17;38.87;;;15.43;;
69625;SDS011;56847;51.984;5.088;2023-02-11T05:19:44;43.20;;;14.55;;
69625;SDS011;56847;51.984;5.088;2023-02-11T05:22:11;44.38;;;14.23;;
69625;SDS011;56847;51.984;5.088;2023-02-11T05:24:38;39.83;;;13.75;;
69625;SDS011;56847;51.984;5.088;2023-02-11T05:27:05;55.30;;;15.82;;
69625;SDS011;56847;51.984;5.088;2023-02-11T05:29:31;42.33;;;15.57;;
69625;SDS011;56847;51.984;5.088;2023-02-11T05:31:58;44.50;;;17.60;;
69625;SDS011;56847;51.984;5.088;2023-02-11T05:34:25;40.15;;;14.20;;
69625;SDS011;56847;51.984;5.088;2023-02-11T05:36:52;39.65;;;16.10;;
69625;SDS011;56847;51.984;5.088;2023-02-11T05:39:19;38.80;;;13.85;;
69625;SDS011;56847;51.984;5.088;2023-02-11T05:41:47;32.10;;;12.40;;
69625;SDS011;56847;51.984;5.088;2023-02-11T05:44:14;49.38;;;16.23;;
69625;SDS011;56847;51.984;5.088;2023-02-11T05:46:41;56.65;;;18.00;;
69625;SDS011;56847;51.984;5.088;2023-02-11T05:49:08;51.00;;;17.13;;
69625;SDS011;56847;51.984;5.088;2023-02-11T05:51:35;41.30;;;15.90;;
69625;SDS011;56847;51.984;5.088;2023-02-11T05:54:02;46.23;;;16.90;;
69625;SDS011;56847;51.984;5.088;2023-02-11T05:56:29;36.22;;;11.43;;
69625;SDS011;56847;51.984;5.088;2023-02-11T05:58:57;46.33;;;16.38;;
69625;SDS011;56847;51.984;5.088;2023-02-11T06:01:25;52.92;;;19.77;;
69625;SDS011;56847;51.984;5.088;2023-02-11T06:03:52;39.95;;;15.57;;
69625;SDS011;56847;51.984;5.088;2023-02-11T06:06:20;50.63;;;15.60;;
69625;SDS011;56847;51.984;5.088;2023-02-11T06:08:48;41.42;;;13.32;;
69625;SDS011;56847;51.984;5.088;2023-02-11T06:11:15;25.92;;;10.98;;
69625;SDS011;56847;51.984;5.088;2023-02-11T06:13:42;40.03;;;13.57;;
69625;SDS011;56847;51.984;5.088;2023-02-11T06:16:09;50.50;;;15.63;;
69625;SDS011;56847;51.984;5.088;2023-02-11T06:18:37;60.13;;;17.17;;
69625;SDS011;56847;51.984;5.088;2023-02-11T06:21:08;46.08;;;17.08;;
69625;SDS011;56847;51.984;5.088;2023-02-11T06:23:36;44.38;;;16.85;;
69625;SDS011;56847;51.984;5.088;2023-02-11T06:26:04;54.92;;;16.50;;
69625;SDS011;56847;51.984;5.088;2023-02-11T06:28:32;43.58;;;18.23;;
69625;SDS011;56847;51.984;5.088;2023-02-11T06:31:05;41.50;;;17.97;;
69625;SDS011;56847;51.984;5.088;2023-02-11T06:33:33;47.88;;;17.10;;
69625;SDS011;56847;51.984;5.088;2023-02-11T06:36:00;38.25;;;15.15;;
69625;SDS011;56847;51.984;5.088;2023-02-11T06:38:28;46.08;;;17.60;;
69625;SDS011;56847;51.984;5.088;2023-02-11T06:40:55;43.38;;;17.00;;
69625;SDS011;56847;51.984;5.088;2023-02-11T06:43:22;43.70;;;13.77;;
69625;SDS011;56847;51.984;5.088;2023-02-11T06:45:52;43.20;;;14.63;;
69625;SDS011;56847;51.984;5.088;2023-02-11T06:48:21;56.22;;;18.63;;
69625;SDS011;56847;51.984;5.088;2023-02-11T06:50:50;44.88;;;15.80;;
69625;SDS011;56847;51.984;5.088;2023-02-11T06:53:16;48.65;;;16.55;;
69625;SDS011;56847;51.984;5.088;2023-02-11T06:55:43;57.73;;;16.13;;
69625;SDS011;56847;51.984;5.088;2023-02-11T06:58:10;39.28;;;17.13;;
69625;SDS011;56847;51.984;5.088;2023-02-11T07:00:37;48.22;;;18.20;;
69625;SDS011;56847;51.984;5.088;2023-02-11T07:03:04;47.13;;;16.10;;
69625;SDS011;56847;51.984;5.088;2023-02-11T07:05:31;45.90;;;17.35;;
69625;SDS011;56847;51.984;5.088;2023-02-11T07:07:59;55.33;;;17.73;;
69625;SDS011;56847;51.984;5.088;2023-02-11T07:10:26;52.17;;;17.90;;
69625;SDS011;56847;51.984;5.088;2023-02-11T07:12:53;43.50;;;16.92;;
69625;SDS011;56847;51.984;5.088;2023-02-11T07:15:23;47.45;;;18.42;;
69625;SDS011;56847;51.984;5.088;2023-02-11T07:17:51;41.83;;;15.18;;
69625;SDS011;56847;51.984;5.088;2023-02-11T07:20:18;40.80;;;17.10;;
69625;SDS011;56847;51.984;5.088;2023-02-11T07:22:45;60.17;;;19.27;;
69625;SDS011;56847;51.984;5.088;2023-02-11T07:25:12;49.38;;;16.77;;
69625;SDS011;56847;51.984;5.088;2023-02-11T07:27:39;36.80;;;15.93;;
69625;SDS011;56847;51.984;5.088;2023-02-11T07:30:06;38.35;;;15.13;;
69625;SDS011;56847;51.984;5.088;2023-02-11T07:32:33;32.00;;;14.53;;
69625;SDS011;56847;51.984;5.088;2023-02-11T07:35:00;42.22;;;17.55;;
69625;SDS011;56847;51.984;5.088;2023-02-11T07:37:27;49.33;;;19.13;;
69625;SDS011;56847;51.984;5.088;2023-02-11T07:39:54;49.83;;;18.88;;
69625;SDS011;56847;51.984;5.088;2023-02-11T07:42:21;51.40;;;17.65;;
69625;SDS011;56847;51.984;5.088;2023-02-11T07:44:48;43.70;;;18.13;;
69625;SDS011;56847;51.984;5.088;2023-02-11T07:47:16;53.45;;;19.38;;
69625;SDS011;56847;51.984;5.088;2023-02-11T07:49:43;57.33;;;19.23;;
69625;SDS011;56847;51.984;5.088;2023-02-11T07:52:10;46.88;;;19.92;;
69625;SDS011;56847;51.984;5.088;2023-02-11T07:54:37;32.75;;;14.52;;
69625;SDS011;56847;51.984;5.088;2023-02-11T07:57:04;52.50;;;18.13;;
69625;SDS011;56847;51.984;5.088;2023-02-11T07:59:32;36.38;;;15.98;;
69625;SDS011;56847;51.984;5.088;2023-02-11T08:01:59;59.15;;;20.38;;
69625;SDS011;56847;51.984;5.088;2023-02-11T08:04:26;40.00;;;17.52;;
69625;SDS011;56847;51.984;5.088;2023-02-11T08:06:53;41.75;;;16.67;;
69625;SDS011;56847;51.984;5.088;2023-02-11T08:09:24;44.67;;;18.63;;
69625;SDS011;56847;51.984;5.088;2023-02-11T08:11:51;40.80;;;17.15;;
69625;SDS011;56847;51.984;5.088;2023-02-11T08:14:18;38.15;;;14.07;;
69625;SDS011;56847;51.984;5.088;2023-02-11T08:16:45;51.08;;;19.00;;
69625;SDS011;56847;51.984;5.088;2023-02-11T08:19:13;50.67;;;20.02;;
69625;SDS011;56847;51.984;5.088;2023-02-11T08:21:41;45.70;;;19.57;;
69625;SDS011;56847;51.984;5.088;2023-02-11T08:24:09;49.67;;;21.05;;
69625;SDS011;56847;51.984;5.088;2023-02-11T08:26:37;54.45;;;20.20;;
69625;SDS011;56847;51.984;5.088;2023-02-11T08:29:08;56.00;;;19.02;;
69625;SDS011;56847;51.984;5.088;2023-02-11T08:31:38;44.30;;;19.85;;
69625;SDS011;56847;51.984;5.088;2023-02-11T08:34:06;42.70;;;18.37;;
69625;SDS011;56847;51.984;5.088;2023-02-11T08:36:36;43.33;;;17.85;;
69625;SDS011;56847;51.984;5.088;2023-02-11T08:39:11;51.25;;;21.13;;
69625;SDS011;56847;51.984;5.088;2023-02-11T08:41:49;53.60;;;21.05;;
69625;SDS011;56847;51.984;5.088;2023-02-11T08:44:19;47.50;;;20.30;;
69625;SDS011;56847;51.984;5.088;2023-02-11T08:46:46;52.27;;;20.80;;
69625;SDS011;56847;51.984;5.088;2023-02-11T08:49:14;50.35;;;21.40;;
69625;SDS011;56847;51.984;5.088;2023-02-11T08:51:42;52.70;;;19.08;;
69625;SDS011;56847;51.984;5.088;2023-02-11T08:54:10;50.95;;;21.85;;
69625;SDS011;56847;51.984;5.088;2023-02-11T08:56:38;37.03;;;17.73;;
69625;SDS011;56847;51.984;5.088;2023-02-11T08:59:05;48.23;;;20.07;;
69625;SDS011;56847;51.984;5.088;2023-02-11T09:01:35;53.83;;;22.88;;
69625;SDS011;56847;51.984;5.088;2023-02-11T09:04:02;51.40;;;21.50;;
69625;SDS011;56847;51.984;5.088;2023-02-11T09:06:29;38.25;;;17.60;;
69625;SDS011;56847;51.984;5.088;2023-02-11T09:09:00;58.85;;;24.70;;
69625;SDS011;56847;51.984;5.088;2023-02-11T09:11:28;55.53;;;22.30;;
69625;SDS011;56847;51.984;5.088;2023-02-11T09:13:58;49.88;;;22.00;;
69625;SDS011;56847;51.984;5.088;2023-02-11T09:16:27;64.43;;;24.23;;
69625;SDS011;56847;51.984;5.088;2023-02-11T09:18:56;51.78;;;22.88;;
69625;SDS011;56847;51.984;5.088;2023-02-11T09:21:24;47.47;;;22.33;;
69625;SDS011;56847;51.984;5.088;2023-02-11T09:23:58;57.40;;;22.63;;
69625;SDS011;56847;51.984;5.088;2023-02-11T09:26:27;58.92;;;24.42;;
69625;SDS011;56847;51.984;5.088;2023-02-11T09:28:55;50.63;;;22.30;;
69625;SDS011;56847;51.984;5.088;2023-02-11T09:31:24;56.25;;;24.48;;
69625;SDS011;56847;51.984;5.088;2023-02-11T09:33:57;56.80;;;24.02;;
69625;SDS011;56847;51.984;5.088;2023-02-11T09:36:28;51.67;;;24.77;;
69625;SDS011;56847;51.984;5.088;2023-02-11T09:38:59;53.95;;;24.00;;
69625;SDS011;56847;51.984;5.088;2023-02-11T09:44:21;35.13;;;18.33;;
69625;SDS011;56847;51.984;5.088;2023-02-11T09:46:54;52.97;;;23.90;;
69625;SDS011;56847;51.984;5.088;2023-02-11T09:49:32;46.83;;;19.10;;
69625;SDS011;56847;51.984;5.088;2023-02-11T09:55:21;46.00;;;22.17;;
69625;SDS011;56847;51.984;5.088;2023-02-11T09:57:56;45.55;;;20.75;;
69625;SDS011;56847;51.984;5.088;2023-02-11T10:05:43;54.20;;;22.33;;
69625;SDS011;56847;51.984;5.088;2023-02-11T10:11:48;42.13;;;21.85;;
69625;SDS011;56847;51.984;5.088;2023-02-11T10:14:34;43.10;;;19.65;;
69625;SDS011;56847;51.984;5.088;2023-02-11T10:17:28;55.27;;;23.90;;
69625;SDS011;56847;51.984;5.088;2023-02-11T10:22:59;41.50;;;20.95;;
69625;SDS011;56847;51.984;5.088;2023-02-11T10:25:35;41.38;;;20.92;;
69625;SDS011;56847;51.984;5.088;2023-02-11T10:28:12;34.95;;;19.27;;
69625;SDS011;56847;51.984;5.088;2023-02-11T10:34:14;48.28;;;22.15;;
69625;SDS011;56847;51.984;5.088;2023-02-11T10:36:34;49.00;;;21.38;;
69625;SDS011;56847;51.984;5.088;2023-02-11T10:39:14;35.65;;;17.35;;
69625;SDS011;56847;51.984;5.088;2023-02-11T10:41:47;32.75;;;17.20;;
69625;SDS011;56847;51.984;5.088;2023-02-11T10:44:33;43.53;;;20.37;;
69625;SDS011;56847;51.984;5.088;2023-02-11T10:47:04;39.80;;;20.77;;
69625;SDS011;56847;51.984;5.088;2023-02-11T10:49:40;37.83;;;19.48;;
69625;SDS011;56847;51.984;5.088;2023-02-11T10:52:24;49.53;;;20.55;;
69625;SDS011;56847;51.984;5.088;2023-02-11T10:57:41;31.13;;;18.27;;
69625;SDS011;56847;51.984;5.088;2023-02-11T11:05:47;39.78;;;18.90;;
69625;SDS011;56847;51.984;5.088;2023-02-11T11:11:25;39.67;;;20.70;;
69625;SDS011;56847;51.984;5.088;2023-02-11T11:16:21;45.63;;;20.90;;
69625;SDS011;56847;51.984;5.088;2023-02-11T11:18:50;37.92;;;20.40;;
69625;SDS011;56847;51.984;5.088;2023-02-11T11:21:42;47.38;;;25.48;;
69625;SDS011;56847;51.984;5.088;2023-02-11T11:24:22;43.10;;;21.80;;
69625;SDS011;56847;51.984;5.088;2023-02-11T11:27:22;27.10;;;14.50;;
69625;SDS011;56847;51.984;5.088;2023-02-11T11:29:53;36.72;;;19.77;;
69625;SDS011;56847;51.984;5.088;2023-02-11T11:32:28;30.80;;;17.85;;
69625;SDS011;56847;51.984;5.088;2023-02-11T11:35:03;40.10;;;21.98;;
69625;SDS011;56847;51.984;5.088;2023-02-11T11:37:36;46.80;;;23.77;;
69625;SDS011;56847;51.984;5.088;2023-02-11T11:40:09;41.17;;;23.13;;
69625;SDS011;56847;51.984;5.088;2023-02-11T11:42:42;28.98;;;17.55;;
69625;SDS011;56847;51.984;5.088;2023-02-11T11:50:43;36.50;;;21.90;;
69625;SDS011;56847;51.984;5.088;2023-02-11T11:56:13;36.65;;;20.05;;
69625;SDS011;56847;51.984;5.088;2023-02-11T11:58:56;32.20;;;17.40;;
69625;SDS011;56847;51.984;5.088;2023-02-11T12:25:08;28.02;;;15.57;;
69625;SDS011;56847;51.984;5.088;2023-02-11T12:27:45;25.05;;;14.50;;
69625;SDS011;56847;51.984;5.088;2023-02-11T12:35:46;29.33;;;15.38;;
69625;SDS011;56847;51.984;5.088;2023-02-11T12:38:17;28.98;;;16.77;;
69625;SDS011;56847;51.984;5.088;2023-02-11T12:44:09;29.60;;;16.83;;
69625;SDS011;56847;51.984;5.088;2023-02-11T12:47:11;33.25;;;17.17;;
69625;SDS011;56847;51.984;5.088;2023-02-11T12:55:22;24.45;;;13.35;;
69625;SDS011;56847;51.984;5.088;2023-02-11T12:57:55;28.57;;;16.03;;
69625;SDS011;56847;51.984;5.088;2023-02-11T13:00:38;24.73;;;14.68;;
69625;SDS011;56847;51.984;5.088;2023-02-11T13:03:14;24.67;;;13.93;;
69625;SDS011;56847;51.984;5.088;2023-02-11T13:05:54;19.40;;;13.18;;
69625;SDS011;56847;51.984;5.088;2023-02-11T13:08:34;21.60;;;11.70;;
69625;SDS011;56847;51.984;5.088;2023-02-11T13:11:19;17.80;;;11.00;;
69625;SDS011;56847;51.984;5.088;2023-02-11T13:13:54;23.73;;;11.18;;
69625;SDS011;56847;51.984;5.088;2023-02-11T13:16:41;13.13;;;9.10;;
69625;SDS011;56847;51.984;5.088;2023-02-11T13:19:29;13.75;;;7.38;;
69625;SDS011;56847;51.984;5.088;2023-02-11T13:22:16;14.82;;;9.20;;
69625;SDS011;56847;51.984;5.088;2023-02-11T13:28:28;13.40;;;9.73;;
69625;SDS011;56847;51.984;5.088;2023-02-11T13:30:43;15.43;;;9.30;;
69625;SDS011;56847;51.984;5.088;2023-02-11T13:33:19;14.10;;;7.97;;
69625;SDS011;56847;51.984;5.088;2023-02-11T13:38:23;10.90;;;9.03;;
69625;SDS011;56847;51.984;5.088;2023-02-11T13:43:26;13.80;;;9.00;;
69625;SDS011;56847;51.984;5.088;2023-02-11T13:46:08;14.23;;;9.07;;
69625;SDS011;56847;51.984;5.088;2023-02-11T13:48:38;16.50;;;8.68;;
69625;SDS011;56847;51.984;5.088;2023-02-11T13:51:14;12.47;;;8.17;;
69625;SDS011;56847;51.984;5.088;2023-02-11T13:53:53;13.90;;;8.27;;
69625;SDS011;56847;51.984;5.088;2023-02-11T14:02:19;12.43;;;8.27;;
69625;SDS011;56847;51.984;5.088;2023-02-11T14:05:18;11.97;;;7.70;;
69625;SDS011;56847;51.984;5.088;2023-02-11T14:08:14;14.02;;;7.35;;
69625;SDS011;56847;51.984;5.088;2023-02-11T14:16:19;9.57;;;7.07;;
69625;SDS011;56847;51.984;5.088;2023-02-11T14:19:03;14.87;;;8.17;;
69625;SDS011;56847;51.984;5.088;2023-02-11T14:21:37;13.35;;;8.60;;
69625;SDS011;56847;51.984;5.088;2023-02-11T14:26:55;15.43;;;9.13;;
69625;SDS011;56847;51.984;5.088;2023-02-11T14:32:09;13.70;;;7.70;;
69625;SDS011;56847;51.984;5.088;2023-02-11T14:37:46;14.80;;;8.30;;
69625;SDS011;56847;51.984;5.088;2023-02-11T14:43:43;14.18;;;7.85;;
69625;SDS011;56847;51.984;5.088;2023-02-11T14:46:16;14.10;;;8.73;;
69625;SDS011;56847;51.984;5.088;2023-02-11T14:48:46;13.05;;;7.95;;
69625;SDS011;56847;51.984;5.088;2023-02-11T14:51:20;14.13;;;7.70;;
69625;SDS011;56847;51.984;5.088;2023-02-11T14:54:08;12.98;;;8.07;;
69625;SDS011;56847;51.984;5.088;2023-02-11T14:56:38;11.13;;;8.05;;
69625;SDS011;56847;51.984;5.088;2023-02-11T14:59:14;13.67;;;8.47;;
69625;SDS011;56847;51.984;5.088;2023-02-11T15:01:51;10.68;;;7.43;;
69625;SDS011;56847;51.984;5.088;2023-02-11T15:04:23;22.88;;;8.93;;
69625;SDS011;56847;51.984;5.088;2023-02-11T15:06:52;13.05;;;9.55;;
69625;SDS011;56847;51.984;5.088;2023-02-11T15:09:22;13.98;;;9.40;;
69625;SDS011;56847;51.984;5.088;2023-02-11T15:12:09;13.73;;;8.27;;
69625;SDS011;56847;51.984;5.088;2023-02-11T15:14:45;13.35;;;7.63;;
69625;SDS011;56847;51.984;5.088;2023-02-11T15:17:17;16.75;;;8.45;;
69625;SDS011;56847;51.984;5.088;2023-02-11T15:19:48;12.82;;;7.85;;
69625;SDS011;56847;51.984;5.088;2023-02-11T15:25:13;13.10;;;8.67;;
69625;SDS011;56847;51.984;5.088;2023-02-11T15:27:43;12.05;;;7.78;;
69625;SDS011;56847;51.984;5.088;2023-02-11T15:32:52;13.15;;;8.48;;
69625;SDS011;56847;51.984;5.088;2023-02-11T15:35:42;15.23;;;8.88;;
69625;SDS011;56847;51.984;5.088;2023-02-11T15:38:10;19.50;;;10.63;;
69625;SDS011;56847;51.984;5.088;2023-02-11T15:40:39;18.33;;;10.20;;
69625;SDS011;56847;51.984;5.088;2023-02-11T15:43:07;18.35;;;9.75;;
69625;SDS011;56847;51.984;5.088;2023-02-11T15:45:37;13.95;;;9.40;;
69625;SDS011;56847;51.984;5.088;2023-02-11T15:48:11;26.73;;;13.30;;
69625;SDS011;56847;51.984;5.088;2023-02-11T15:50:52;21.80;;;12.13;;
69625;SDS011;56847;51.984;5.088;2023-02-11T15:53:28;29.98;;;15.45;;
69625;SDS011;56847;51.984;5.088;2023-02-11T15:56:20;32.33;;;16.23;;
69625;SDS011;56847;51.984;5.088;2023-02-11T15:58:52;24.65;;;13.20;;
69625;SDS011;56847;51.984;5.088;2023-02-11T16:01:29;32.45;;;13.63;;
69625;SDS011;56847;51.984;5.088;2023-02-11T16:03:59;37.43;;;21.53;;
69625;SDS011;56847;51.984;5.088;2023-02-11T16:09:26;29.13;;;17.52;;
69625;SDS011;56847;51.984;5.088;2023-02-11T16:11:59;26.38;;;14.27;;
69625;SDS011;56847;51.984;5.088;2023-02-11T16:14:31;30.75;;;14.27;;
69625;SDS011;56847;51.984;5.088;2023-02-11T16:19:35;30.55;;;16.27;;
69625;SDS011;56847;51.984;5.088;2023-02-11T16:22:09;40.20;;;19.63;;
69625;SDS011;56847;51.984;5.088;2023-02-11T16:24:39;47.70;;;24.45;;
69625;SDS011;56847;51.984;5.088;2023-02-11T16:27:14;27.00;;;16.42;;
69625;SDS011;56847;51.984;5.088;2023-02-11T16:29:48;21.07;;;13.40;;
69625;SDS011;56847;51.984;5.088;2023-02-11T16:32:24;22.80;;;11.43;;
69625;SDS011;56847;51.984;5.088;2023-02-11T16:34:53;19.85;;;12.02;;
69625;SDS011;56847;51.984;5.088;2023-02-11T16:37:23;18.10;;;10.13;;
69625;SDS011;56847;51.984;5.088;2023-02-11T16:39:56;24.10;;;11.75;;
69625;SDS011;56847;51.984;5.088;2023-02-11T16:42:23;24.63;;;11.63;;
69625;SDS011;56847;51.984;5.088;2023-02-11T16:44:50;18.98;;;10.63;;
69625;SDS011;56847;51.984;5.088;2023-02-11T16:47:23;21.05;;;11.38;;
69625;SDS011;56847;51.984;5.088;2023-02-11T16:49:52;22.83;;;12.00;;
69625;SDS011;56847;51.984;5.088;2023-02-11T16:52:20;21.85;;;10.93;;
69625;SDS011;56847;51.984;5.088;2023-02-11T16:54:48;19.13;;;10.30;;
69625;SDS011;56847;51.984;5.088;2023-02-11T16:57:17;17.20;;;9.80;;
69625;SDS011;56847;51.984;5.088;2023-02-11T16:59:48;17.00;;;9.95;;
69625;SDS011;56847;51.984;5.088;2023-02-11T17:05:07;16.90;;;9.60;;
69625;SDS011;56847;51.984;5.088;2023-02-11T17:07:40;12.13;;;8.40;;
69625;SDS011;56847;51.984;5.088;2023-02-11T17:10:15;19.25;;;10.35;;
69625;SDS011;56847;51.984;5.088;2023-02-11T17:12:44;20.20;;;10.40;;
69625;SDS011;56847;51.984;5.088;2023-02-11T17:15:13;55.50;;;22.50;;
69625;SDS011;56847;51.984;5.088;2023-02-11T17:17:40;36.35;;;18.30;;
69625;SDS011;56847;51.984;5.088;2023-02-11T17:20:09;21.10;;;12.30;;
69625;SDS011;56847;51.984;5.088;2023-02-11T17:22:40;21.58;;;10.77;;